Terminal Aerodrome Forecast
Issued by NWS Memphis, TN

Home | Current Version | Previous Version | Text Only | Print | Product List | Glossary On
Versions: 1 2 3 4 5 6 7 8 9 10 11 12 13 14 15 16 17 18
000
FTUS44 KMEG 250639 AAB
TAFMKL
TAF AMD
KMKL 250639Z 2507/2606 00000KT 3SM BR SCT250
      TEMPO 2507/2509 1SM BR BKN003
     FM250900 00000KT 3SM BR SKC
      TEMPO 2509/2513 1/2SM FG BKN005
     FM251400 23005KT P6SM SCT040 SCT250
     FM252000 24005KT P6SM VCTS BKN050CB BKN250
     FM260100 00000KT P6SM SCT250=

USA.gov is the U.S. government's official web portal to all federal, state and local government web resources and services.